createdAt,value
2022-12-13T00:00:10.503Z,3.00
2022-12-13T00:02:38.998Z,3.87
2022-12-13T00:05:10.323Z,3.10
2022-12-13T00:07:39.144Z,3.50
2022-12-13T00:10:08.783Z,3.67
2022-12-13T00:12:37.714Z,4.20
2022-12-13T00:15:07.693Z,4.37
2022-12-13T00:17:36.034Z,3.50
2022-12-13T00:20:05.514Z,4.87
2022-12-13T00:22:35.250Z,3.07
2022-12-13T00:25:03.640Z,3.60
2022-12-13T00:27:32.241Z,3.30
2022-12-13T00:30:00.976Z,3.60
2022-12-13T00:32:29.454Z,3.67
2022-12-13T00:34:58.041Z,4.20
2022-12-13T00:37:26.283Z,3.10
2022-12-13T00:39:58.712Z,3.97
2022-12-13T00:42:27.131Z,3.60
2022-12-13T00:44:56.006Z,3.00
2022-12-13T00:47:25.308Z,2.70
2022-12-13T00:49:53.815Z,3.57
2022-12-13T00:52:22.143Z,3.70
2022-12-13T00:54:50.885Z,3.60
2022-12-13T00:57:21.285Z,3.43
2022-12-13T00:59:50.304Z,3.67
2022-12-13T01:02:18.886Z,3.60
2022-12-13T01:04:47.712Z,3.40
2022-12-13T01:07:16.019Z,3.73
2022-12-13T01:09:45.152Z,3.60
2022-12-13T01:12:13.502Z,3.13
2022-12-13T01:14:44.027Z,3.60
2022-12-13T01:17:12.891Z,3.47
2022-12-13T01:19:41.520Z,3.93
2022-12-13T01:22:11.716Z,4.10
2022-12-13T01:24:40.144Z,4.00
2022-12-13T01:27:08.724Z,4.43
2022-12-13T01:29:37.459Z,4.93
2022-12-13T01:32:07.681Z,4.20
2022-12-13T01:34:36.165Z,4.83
2022-12-13T01:37:04.553Z,4.43
2022-12-13T01:39:38.216Z,4.33
2022-12-13T01:42:06.902Z,3.67
2022-12-13T01:45:04.035Z,3.00
2022-12-13T01:47:40.312Z,5.60
2022-12-13T01:50:15.463Z,5.13
2022-12-13T01:52:45.295Z,5.70
2022-12-13T01:55:15.996Z,3.77
2022-12-13T01:57:46.873Z,4.10
2022-12-13T02:00:17.242Z,3.17
2022-12-13T02:02:49.940Z,4.37
2022-12-13T02:05:24.942Z,2.83
2022-12-13T02:07:54.361Z,4.17
2022-12-13T02:10:23.023Z,2.77
2022-12-13T02:12:52.261Z,3.83
2022-12-13T02:15:21.800Z,2.40
2022-12-13T02:18:15.975Z,3.03
2022-12-13T02:21:14.564Z,3.30
2022-12-13T02:24:19.909Z,2.50
2022-12-13T02:27:02.979Z,3.50
2022-12-13T02:30:17.156Z,2.83
2022-12-13T02:33:13.774Z,3.90
2022-12-13T02:36:02.951Z,3.03
2022-12-13T02:38:40.937Z,3.00
2022-12-13T02:41:18.572Z,3.93
2022-12-13T02:44:01.111Z,4.33
2022-12-13T02:46:34.606Z,2.50
2022-12-13T02:49:06.567Z,2.77
2022-12-13T02:51:36.397Z,3.43
2022-12-13T02:54:05.197Z,4.07
2022-12-13T02:56:33.595Z,4.20
2022-12-13T02:59:12.461Z,3.50
2022-12-13T03:02:09.692Z,3.23
2022-12-13T03:05:07.317Z,3.43
2022-12-13T03:07:48.728Z,3.93
2022-12-13T03:10:23.198Z,3.53
2022-12-13T03:13:16.436Z,2.67
2022-12-13T03:15:50.559Z,3.57
2022-12-13T03:18:21.670Z,3.43
2022-12-13T03:20:54.859Z,3.80
2022-12-13T03:23:23.803Z,3.60
2022-12-13T03:25:56.980Z,2.93
2022-12-13T03:28:25.905Z,3.53
2022-12-13T03:30:54.265Z,4.07
2022-12-13T03:33:22.701Z,3.50
2022-12-13T03:35:52.969Z,3.80
2022-12-13T03:38:23.438Z,4.03
2022-12-13T03:40:57.298Z,3.77
2022-12-13T03:43:26.313Z,2.80
2022-12-13T03:45:56.147Z,4.20
2022-12-13T03:48:24.889Z,2.90
2022-12-13T03:50:55.753Z,3.83
2022-12-13T03:53:33.035Z,3.60
2022-12-13T03:56:04.450Z,3.53
2022-12-13T03:58:36.931Z,2.97
2022-12-13T04:01:08.838Z,3.73
2022-12-13T04:03:39.356Z,3.30
2022-12-13T04:06:10.676Z,3.93
2022-12-13T04:08:41.052Z,2.40
2022-12-13T04:11:27.822Z,4.00
2022-12-13T04:13:58.550Z,3.50
2022-12-13T04:16:27.790Z,2.93
2022-12-13T04:18:56.222Z,3.03
2022-12-13T04:21:26.494Z,2.97
2022-12-13T04:23:55.239Z,3.87
2022-12-13T04:26:29.275Z,3.60
2022-12-13T04:28:57.759Z,3.50
2022-12-13T04:31:26.269Z,2.73
2022-12-13T04:33:54.643Z,3.50
2022-12-13T04:36:31.856Z,3.40
2022-12-13T04:39:03.174Z,3.00
2022-12-13T04:41:38.088Z,3.37
2022-12-13T04:44:27.651Z,3.70
2022-12-13T04:47:00.702Z,4.03
2022-12-13T04:49:31.090Z,3.10
2022-12-13T04:52:01.586Z,2.23
2022-12-13T04:54:36.501Z,2.80
2022-12-13T04:57:09.392Z,3.33
2022-12-13T04:59:38.727Z,3.00
2022-12-13T05:02:09.554Z,3.93
2022-12-13T05:04:39.110Z,3.63
2022-12-13T05:07:07.828Z,2.30
2022-12-13T05:09:37.876Z,3.67
2022-12-13T05:12:13.027Z,3.87
2022-12-13T05:14:51.672Z,4.03
2022-12-13T05:17:20.947Z,3.33
2022-12-13T05:19:49.426Z,3.47
2022-12-13T05:22:20.625Z,3.97
2022-12-13T05:24:51.837Z,3.83
2022-12-13T05:27:23.827Z,3.57
2022-12-13T05:30:03.135Z,3.63
2022-12-13T05:32:49.748Z,4.00
2022-12-13T05:35:33.597Z,3.80
2022-12-13T05:38:02.159Z,5.30
2022-12-13T05:40:33.804Z,5.37
2022-12-13T05:43:02.257Z,5.90
2022-12-13T05:45:31.784Z,5.33
2022-12-13T05:48:01.569Z,6.53
2022-12-13T05:50:30.454Z,5.77
2022-12-13T05:52:58.766Z,6.20
2022-12-13T05:55:27.633Z,4.40
2022-12-13T05:58:02.457Z,4.67
2022-12-13T06:00:32.362Z,5.20
2022-12-13T06:03:02.233Z,5.63
2022-12-13T06:05:31.558Z,3.40
2022-12-13T06:08:24.878Z,4.67
2022-12-13T06:11:11.657Z,5.83
2022-12-13T06:13:43.779Z,4.17
2022-12-13T06:16:23.319Z,5.20
2022-12-13T06:19:02.831Z,4.37
2022-12-13T06:21:40.803Z,5.23
2022-12-13T06:24:16.103Z,4.07
2022-12-13T06:26:45.933Z,4.40
2022-12-13T06:29:23.552Z,3.47
2022-12-13T06:32:00.890Z,4.23
2022-12-13T06:34:36.178Z,4.80
2022-12-13T06:37:06.945Z,3.97
2022-12-13T06:39:35.824Z,4.73
2022-12-13T06:42:06.650Z,4.43
2022-12-13T06:44:36.679Z,4.33
2022-12-13T06:47:10.418Z,4.40
2022-12-13T06:49:42.643Z,5.43
2022-12-13T06:52:18.066Z,4.10
2022-12-13T06:54:46.362Z,4.90
2022-12-13T06:57:15.019Z,4.23
2022-12-13T06:59:46.046Z,4.57
2022-12-13T07:02:24.879Z,3.70
2022-12-13T07:04:56.477Z,4.33
2022-12-13T07:07:26.155Z,3.60
2022-12-13T07:09:55.433Z,5.10
2022-12-13T07:12:24.391Z,4.00
2022-12-13T07:14:56.028Z,3.90
2022-12-13T07:17:32.660Z,4.37
2022-12-13T07:20:07.897Z,4.23
2022-12-13T07:22:45.201Z,4.00
2022-12-13T07:25:28.116Z,5.73
2022-12-13T07:28:01.135Z,4.93
2022-12-13T07:30:33.685Z,5.00
2022-12-13T07:33:03.359Z,5.03
2022-12-13T07:35:36.929Z,5.47
2022-12-13T07:38:06.265Z,4.97
2022-12-13T07:40:35.502Z,5.07
2022-12-13T07:43:05.885Z,4.20
2022-12-13T07:45:36.005Z,4.93
2022-12-13T07:48:09.391Z,4.93
2022-12-13T07:50:38.178Z,4.50
2022-12-13T07:53:07.801Z,4.73
2022-12-13T07:55:37.749Z,5.30
2022-12-13T07:58:08.353Z,4.73
2022-12-13T08:00:38.510Z,4.53
2022-12-13T08:03:07.694Z,4.87
2022-12-13T08:05:38.561Z,4.37
2022-12-13T08:08:10.166Z,4.20
2022-12-13T08:10:39.127Z,5.67
2022-12-13T08:13:07.768Z,5.87
2022-12-13T08:15:37.612Z,5.27
2022-12-13T08:18:06.485Z,5.10
2022-12-13T08:20:34.798Z,5.03
2022-12-13T08:23:03.442Z,4.23
2022-12-13T08:25:32.127Z,5.00
2022-12-13T08:28:02.874Z,5.60
2022-12-13T08:30:33.728Z,5.53
2022-12-13T08:33:04.872Z,6.00
2022-12-13T08:35:34.985Z,5.20
2022-12-13T08:38:04.486Z,5.83
2022-12-13T08:40:33.244Z,5.20
2022-12-13T08:43:02.025Z,4.27
2022-12-13T08:45:31.609Z,4.43
2022-12-13T08:48:00.710Z,5.03
2022-12-13T08:50:31.825Z,5.10
2022-12-13T08:53:00.344Z,5.33
2022-12-13T08:55:31.407Z,4.73
2022-12-13T08:58:07.017Z,5.77
2022-12-13T09:00:36.497Z,5.50
2022-12-13T09:03:05.910Z,4.57
2022-12-13T09:05:40.585Z,4.67
2022-12-13T09:08:22.997Z,3.73
2022-12-13T09:11:00.462Z,5.80
2022-12-13T09:13:32.072Z,4.20
2022-12-13T09:16:13.857Z,5.73
2022-12-13T09:18:43.175Z,5.17
2022-12-13T09:21:22.120Z,5.37
2022-12-13T09:24:01.962Z,6.20
2022-12-13T09:26:38.130Z,5.40
2022-12-13T09:29:10.651Z,5.60
2022-12-13T09:31:40.618Z,4.50
2022-12-13T09:34:10.148Z,4.47
2022-12-13T09:36:40.102Z,5.03
2022-12-13T09:39:08.382Z,5.30
2022-12-13T09:41:41.340Z,5.70
2022-12-13T09:44:32.925Z,4.23
2022-12-13T09:47:23.002Z,5.17
2022-12-13T09:49:53.887Z,5.37
2022-12-13T09:52:26.386Z,4.40
2022-12-13T09:55:05.496Z,5.33
2022-12-13T09:57:38.278Z,4.57
2022-12-13T10:00:12.866Z,4.90
2022-12-13T10:02:47.303Z,5.10
2022-12-13T10:05:34.420Z,5.60
2022-12-13T10:08:14.255Z,4.47
2022-12-13T10:10:44.343Z,4.50
2022-12-13T10:13:21.798Z,5.00
2022-12-13T10:16:00.450Z,5.40
2022-12-13T10:18:36.941Z,4.67
2022-12-13T10:21:11.173Z,5.13
2022-12-13T10:24:15.075Z,5.10
2022-12-13T10:26:37.876Z,5.40
2022-12-13T10:29:07.837Z,5.53
2022-12-13T10:31:42.471Z,5.50
2022-12-13T10:34:23.498Z,5.50
2022-12-13T10:36:52.478Z,5.50
2022-12-13T10:39:41.237Z,4.77
2022-12-13T10:42:22.795Z,5.37
2022-12-13T10:45:14.689Z,4.83
2022-12-13T10:47:45.411Z,5.00
2022-12-13T10:50:26.240Z,4.40
2022-12-13T10:52:55.865Z,4.43
2022-12-13T10:55:30.238Z,4.50
2022-12-13T10:58:01.699Z,4.17
2022-12-13T11:00:39.188Z,5.13
2022-12-13T11:03:08.960Z,5.10
2022-12-13T11:05:40.599Z,5.27
2022-12-13T11:08:22.199Z,4.50
2022-12-13T11:11:00.910Z,4.20
2022-12-13T11:13:38.497Z,5.00
2022-12-13T11:16:23.434Z,5.23
2022-12-13T11:18:55.711Z,4.20
2022-12-13T11:21:28.316Z,5.20
2022-12-13T11:24:01.881Z,5.00
2022-12-13T11:26:36.828Z,4.57
2022-12-13T11:29:30.416Z,5.47
2022-12-13T11:32:07.785Z,5.40
2022-12-13T11:34:47.294Z,5.37
2022-12-13T11:37:27.555Z,4.50
2022-12-13T11:40:01.123Z,5.10
2022-12-13T11:42:36.973Z,5.03
2022-12-13T11:45:22.631Z,4.93
2022-12-13T11:48:02.836Z,4.77
2022-12-13T11:50:37.314Z,4.37
2022-12-13T11:53:29.116Z,4.67
2022-12-13T11:56:06.917Z,5.00
2022-12-13T11:59:02.563Z,5.10
2022-12-13T12:01:38.212Z,5.20
2022-12-13T12:04:17.828Z,5.27
2022-12-13T12:06:52.670Z,5.50
2022-12-13T12:09:25.296Z,4.30
2022-12-13T12:12:02.090Z,4.87
2022-12-13T12:14:42.884Z,5.37
2022-12-13T12:17:16.297Z,5.07
2022-12-13T12:19:48.569Z,5.30
2022-12-13T12:22:31.869Z,4.63
2022-12-13T12:25:18.194Z,5.13
2022-12-13T12:27:57.250Z,5.10
2022-12-13T12:30:34.569Z,4.90
2022-12-13T12:33:17.081Z,4.87
2022-12-13T12:36:11.038Z,5.00
2022-12-13T12:39:05.538Z,5.83
2022-12-13T12:41:48.863Z,6.30
2022-12-13T12:44:33.703Z,5.50
2022-12-13T12:47:54.564Z,5.20
2022-12-13T12:50:31.852Z,6.00
2022-12-13T12:53:27.253Z,5.93
2022-12-13T12:56:10.481Z,5.03
2022-12-13T12:58:45.601Z,4.97
2022-12-13T13:01:36.145Z,5.47
2022-12-13T13:04:22.116Z,5.70
2022-12-13T13:07:01.701Z,6.50
2022-12-13T13:09:31.522Z,6.43
2022-12-13T13:12:28.592Z,5.93
2022-12-13T13:14:52.637Z,5.23
2022-12-13T13:17:47.409Z,5.43
2022-12-13T13:20:30.980Z,5.53
2022-12-13T13:23:31.912Z,5.13
2022-12-13T13:28:45.323Z,5.50
2022-12-13T13:31:14.065Z,6.27
2022-12-13T13:33:48.161Z,6.87
2022-12-13T13:36:47.772Z,5.00
2022-12-13T13:39:19.290Z,5.10
2022-12-13T13:42:19.278Z,6.43
2022-12-13T13:45:19.579Z,5.87
2022-12-13T13:48:22.871Z,5.63
2022-12-13T13:55:21.326Z,7.37
2022-12-13T13:58:51.361Z,5.00
2022-12-13T14:02:19.097Z,5.77
2022-12-13T14:05:41.746Z,5.37
2022-12-13T14:08:30.245Z,6.17
2022-12-13T14:11:42.730Z,5.40
2022-12-13T14:15:16.191Z,5.13
2022-12-13T14:18:44.592Z,5.17
2022-12-13T14:21:46.672Z,5.57
2022-12-13T14:24:29.606Z,5.27
2022-12-13T14:27:14.029Z,5.23
2022-12-13T14:29:48.821Z,5.57
2022-12-13T14:32:29.054Z,6.40
2022-12-13T14:34:58.324Z,6.30
2022-12-13T14:37:32.833Z,5.43
2022-12-13T14:40:05.389Z,6.17
2022-12-13T14:42:35.768Z,6.30
2022-12-13T14:45:17.581Z,5.43
2022-12-13T14:47:46.403Z,6.40
2022-12-13T14:50:19.149Z,6.33
2022-12-13T14:52:49.891Z,6.37
2022-12-13T14:55:28.713Z,5.03
2022-12-13T14:57:59.747Z,6.73
2022-12-13T15:00:31.867Z,5.87
2022-12-13T15:03:03.152Z,6.97
2022-12-13T15:05:57.412Z,5.93
2022-12-13T15:08:26.182Z,5.97
2022-12-13T15:10:58.129Z,6.53
2022-12-13T15:13:33.808Z,5.50
2022-12-13T15:16:10.217Z,5.77
2022-12-13T15:18:39.343Z,6.20
2022-12-13T15:21:22.903Z,6.17
2022-12-13T15:23:52.848Z,6.23
2022-12-13T15:26:28.509Z,7.30
2022-12-13T15:29:00.887Z,6.10
2022-12-13T15:31:29.810Z,5.50
2022-12-13T15:34:34.287Z,6.07
2022-12-13T15:37:06.619Z,5.83
2022-12-13T15:39:41.049Z,5.77
2022-12-13T15:42:24.334Z,7.07
2022-12-13T15:44:57.056Z,6.20
2022-12-13T15:47:28.280Z,7.10
2022-12-13T15:50:04.928Z,9.43
2022-12-13T15:52:37.571Z,5.67
2022-12-13T15:55:35.191Z,5.97
2022-12-13T15:58:19.015Z,5.30
2022-12-13T16:00:50.640Z,5.17
2022-12-13T16:03:24.807Z,5.17
2022-12-13T16:05:55.944Z,6.10
2022-12-13T16:08:29.468Z,6.43
2022-12-13T16:10:59.025Z,5.97
2022-12-13T16:13:32.231Z,6.53
2022-12-13T16:16:09.372Z,6.17
2022-12-13T16:18:47.349Z,5.73
2022-12-13T16:21:15.639Z,5.00
2022-12-13T16:23:48.400Z,6.43
2022-12-13T16:26:25.762Z,5.87
2022-12-13T16:28:57.787Z,4.80
2022-12-13T16:31:31.394Z,7.67
2022-12-13T16:33:59.822Z,6.13
2022-12-13T16:36:28.245Z,6.37
2022-12-13T16:38:56.560Z,6.50
2022-12-13T16:41:25.048Z,5.90
2022-12-13T16:43:58.150Z,6.77
2022-12-13T16:47:16.134Z,6.57
2022-12-13T16:49:25.438Z,6.30
2022-12-13T16:51:54.224Z,6.70
2022-12-13T16:54:24.766Z,9.20
2022-12-13T16:56:54.888Z,6.40
2022-12-13T16:59:28.106Z,5.93
2022-12-13T17:01:56.579Z,6.83
2022-12-13T17:04:27.296Z,5.80
2022-12-13T17:06:55.813Z,6.37
2022-12-13T17:09:25.671Z,6.30
2022-12-13T17:11:54.178Z,6.23
2022-12-13T17:14:23.961Z,5.93
2022-12-13T17:16:52.343Z,6.20
2022-12-13T17:19:20.658Z,5.87
2022-12-13T17:21:49.132Z,6.20
2022-12-13T17:24:17.711Z,8.13
2022-12-13T17:26:54.820Z,6.60
2022-12-13T17:29:26.643Z,6.07
2022-12-13T17:31:55.145Z,6.37
2022-12-13T17:34:23.593Z,6.97
2022-12-13T17:36:53.372Z,5.90
2022-12-13T17:39:21.868Z,5.90
2022-12-13T17:41:55.569Z,5.53
2022-12-13T17:44:26.048Z,6.13
2022-12-13T17:46:55.727Z,7.90
2022-12-13T17:49:24.801Z,6.93
2022-12-13T17:51:54.112Z,10.33
2022-12-13T17:54:25.169Z,7.13
2022-12-13T17:56:54.567Z,6.40
2022-12-13T17:59:23.548Z,6.27
2022-12-13T18:01:53.528Z,7.23
2022-12-13T18:04:22.594Z,5.57
2022-12-13T18:06:52.570Z,6.53
2022-12-13T18:09:21.333Z,5.53
2022-12-13T18:11:51.006Z,6.17
2022-12-13T18:14:19.314Z,5.40
2022-12-13T18:16:47.812Z,5.13
2022-12-13T18:19:17.671Z,7.07
2022-12-13T18:21:46.097Z,7.73
2022-12-13T18:24:14.921Z,7.53
2022-12-13T18:26:43.376Z,8.47
2022-12-13T18:29:11.753Z,7.50
2022-12-13T18:31:40.956Z,6.47
2022-12-13T18:34:11.556Z,6.00
2022-12-13T18:36:41.345Z,7.70
2022-12-13T18:39:09.693Z,7.07
2022-12-13T18:41:42.033Z,7.43
2022-12-13T18:44:13.547Z,6.77
2022-12-13T18:46:46.042Z,7.40
2022-12-13T18:49:15.049Z,6.80
2022-12-13T18:51:45.285Z,5.97
2022-12-13T18:54:14.614Z,6.47
2022-12-13T18:56:42.900Z,7.10
2022-12-13T18:59:12.704Z,6.67
2022-12-13T19:01:41.508Z,6.63
2022-12-13T19:04:09.896Z,6.83
2022-12-13T19:06:38.418Z,6.90
2022-12-13T19:09:08.362Z,7.00
2022-12-13T19:11:36.652Z,7.20
2022-12-13T19:14:05.006Z,6.73
2022-12-13T19:16:33.974Z,7.20
2022-12-13T19:19:02.521Z,6.33
2022-12-13T19:21:31.009Z,7.40
2022-12-13T19:24:01.191Z,6.83
2022-12-13T19:26:31.775Z,6.37
2022-12-13T19:29:00.797Z,7.23
2022-12-13T19:31:32.267Z,6.47
2022-12-13T19:34:02.367Z,7.17
2022-12-13T19:36:31.549Z,8.10
2022-12-13T19:39:00.042Z,7.37
2022-12-13T19:41:32.247Z,8.20
2022-12-13T19:44:04.561Z,7.87
2022-12-13T19:46:33.917Z,7.70
2022-12-13T19:49:02.432Z,7.40
2022-12-13T19:51:35.885Z,7.97
2022-12-13T19:54:06.328Z,7.40
2022-12-13T19:56:36.192Z,9.27
2022-12-13T19:59:04.952Z,9.60
2022-12-13T20:01:33.792Z,8.03
2022-12-13T20:04:02.243Z,7.10
2022-12-13T20:06:31.052Z,8.03
2022-12-13T20:08:59.453Z,8.30
2022-12-13T20:11:27.785Z,7.43
2022-12-13T20:13:57.734Z,8.20
2022-12-13T20:16:28.378Z,8.57
2022-12-13T20:18:57.558Z,7.03
2022-12-13T20:21:26.454Z,7.07
2022-12-13T20:23:55.565Z,8.43
2022-12-13T20:26:27.618Z,7.80
2022-12-13T20:28:57.884Z,7.97
2022-12-13T20:31:31.015Z,8.10
2022-12-13T20:34:03.459Z,8.43
2022-12-13T20:36:32.858Z,8.40
2022-12-13T20:39:05.464Z,7.63
2022-12-13T20:41:36.878Z,6.93
2022-12-13T20:44:10.562Z,7.73
2022-12-13T20:46:40.975Z,7.20
2022-12-13T20:49:10.668Z,7.10
2022-12-13T20:51:43.265Z,8.00
2022-12-13T20:54:12.271Z,7.10
2022-12-13T20:56:41.432Z,7.93
2022-12-13T20:59:14.642Z,6.63
2022-12-13T21:01:48.874Z,6.90
2022-12-13T21:04:20.779Z,7.10
2022-12-13T21:06:49.148Z,7.00
2022-12-13T21:09:18.099Z,7.17
2022-12-13T21:11:48.837Z,6.87
2022-12-13T21:14:25.116Z,8.60
2022-12-13T21:16:56.992Z,8.73
2022-12-13T21:19:27.242Z,7.80
2022-12-13T21:21:57.363Z,5.57
2022-12-13T21:24:29.315Z,7.83
2022-12-13T21:26:58.072Z,7.60
2022-12-13T21:29:27.889Z,9.00
2022-12-13T21:31:56.514Z,8.83
2022-12-13T21:34:25.325Z,8.33
2022-12-13T21:37:00.456Z,7.37
2022-12-13T21:39:29.414Z,7.37
2022-12-13T21:41:58.369Z,7.10
2022-12-13T21:44:28.436Z,7.93
2022-12-13T21:47:13.153Z,7.90
2022-12-13T21:49:42.234Z,8.23
2022-12-13T21:52:17.363Z,8.20
2022-12-13T21:54:45.636Z,8.03
2022-12-13T21:57:31.413Z,9.80
2022-12-13T22:00:01.114Z,8.80
2022-12-13T22:02:29.956Z,8.60
2022-12-13T22:05:01.712Z,8.13
2022-12-13T22:07:33.001Z,8.43
2022-12-13T22:10:03.106Z,7.97
2022-12-13T22:12:35.789Z,9.70
2022-12-13T22:15:07.610Z,8.23
2022-12-13T22:17:36.692Z,8.37
2022-12-13T22:20:07.098Z,8.63
2022-12-13T22:22:36.571Z,8.80
2022-12-13T22:25:05.754Z,9.77
2022-12-13T22:27:34.194Z,8.30
2022-12-13T22:30:03.917Z,9.10
2022-12-13T22:32:33.919Z,8.50
2022-12-13T22:35:02.153Z,8.40
2022-12-13T22:37:30.661Z,8.07
2022-12-13T22:39:58.896Z,9.00
2022-12-13T22:42:27.416Z,7.63
2022-12-13T22:44:56.211Z,8.87
2022-12-13T22:47:26.008Z,8.20
2022-12-13T22:49:54.342Z,8.47
2022-12-13T22:52:22.864Z,8.67
2022-12-13T22:54:51.236Z,6.77
2022-12-13T22:57:19.497Z,8.90
2022-12-13T22:59:47.770Z,8.50
2022-12-13T23:02:16.678Z,7.87
2022-12-13T23:04:46.520Z,7.13
2022-12-13T23:07:14.945Z,7.97
2022-12-13T23:09:43.547Z,7.17
2022-12-13T23:12:30.866Z,8.70
2022-12-13T23:15:00.267Z,7.60
2022-12-13T23:17:28.525Z,8.00
2022-12-13T23:19:58.256Z,8.33
2022-12-13T23:22:27.343Z,7.57
2022-12-13T23:24:55.850Z,7.83
2022-12-13T23:27:25.578Z,8.07
2022-12-13T23:29:54.076Z,7.40
2022-12-13T23:32:22.483Z,8.60
2022-12-13T23:34:50.878Z,7.30
2022-12-13T23:37:20.521Z,7.87
2022-12-13T23:39:49.018Z,8.77
2022-12-13T23:42:17.364Z,7.77
2022-12-13T23:44:45.693Z,8.63
2022-12-13T23:47:14.234Z,8.87
2022-12-13T23:49:42.806Z,7.63
2022-12-13T23:52:11.438Z,7.60
2022-12-13T23:54:41.161Z,7.63
2022-12-13T23:57:09.773Z,8.20
2022-12-13T23:59:38.034Z,7.53
